sensor_id;sensor_type;location;lat;lon;timestamp;P1;durP1;ratioP1;P2;durP2;ratioP2
59145;SDS011;44928;53.074;6.646;2023-02-24T00:01:16;10.32;;;1.70;;
59145;SDS011;44928;53.074;6.646;2023-02-24T00:03:52;10.80;;;1.88;;
59145;SDS011;44928;53.074;6.646;2023-02-24T00:06:21;8.32;;;1.55;;
59145;SDS011;44928;53.074;6.646;2023-02-24T00:09:05;5.20;;;1.40;;
59145;SDS011;44928;53.074;6.646;2023-02-24T00:11:43;7.80;;;1.63;;
59145;SDS011;44928;53.074;6.646;2023-02-24T00:14:12;7.25;;;1.80;;
59145;SDS011;44928;53.074;6.646;2023-02-24T00:16:40;11.82;;;2.00;;
59145;SDS011;44928;53.074;6.646;2023-02-24T00:19:09;12.77;;;1.90;;
59145;SDS011;44928;53.074;6.646;2023-02-24T00:21:37;11.48;;;1.70;;
59145;SDS011;44928;53.074;6.646;2023-02-24T00:24:04;7.72;;;1.63;;
59145;SDS011;44928;53.074;6.646;2023-02-24T00:26:31;9.82;;;1.83;;
59145;SDS011;44928;53.074;6.646;2023-02-24T00:28:57;6.28;;;1.30;;
59145;SDS011;44928;53.074;6.646;2023-02-24T00:31:25;9.15;;;1.65;;
59145;SDS011;44928;53.074;6.646;2023-02-24T00:33:55;7.05;;;1.40;;
59145;SDS011;44928;53.074;6.646;2023-02-24T00:36:22;6.13;;;1.38;;
59145;SDS011;44928;53.074;6.646;2023-02-24T00:38:53;11.23;;;1.95;;
59145;SDS011;44928;53.074;6.646;2023-02-24T00:43:47;8.00;;;1.63;;
59145;SDS011;44928;53.074;6.646;2023-02-24T00:46:15;11.45;;;1.50;;
59145;SDS011;44928;53.074;6.646;2023-02-24T00:48:43;12.85;;;1.45;;
59145;SDS011;44928;53.074;6.646;2023-02-24T00:51:13;13.02;;;2.00;;
59145;SDS011;44928;53.074;6.646;2023-02-24T00:53:42;9.77;;;1.65;;
59145;SDS011;44928;53.074;6.646;2023-02-24T00:56:09;9.95;;;1.88;;
59145;SDS011;44928;53.074;6.646;2023-02-24T00:58:40;6.15;;;1.40;;
59145;SDS011;44928;53.074;6.646;2023-02-24T01:01:11;10.38;;;1.35;;
59145;SDS011;44928;53.074;6.646;2023-02-24T01:03:42;8.18;;;1.48;;
59145;SDS011;44928;53.074;6.646;2023-02-24T01:06:12;8.38;;;1.17;;
59145;SDS011;44928;53.074;6.646;2023-02-24T01:08:38;5.40;;;1.08;;
59145;SDS011;44928;53.074;6.646;2023-02-24T01:11:11;9.40;;;1.58;;
59145;SDS011;44928;53.074;6.646;2023-02-24T01:13:56;8.32;;;1.42;;
59145;SDS011;44928;53.074;6.646;2023-02-24T01:16:22;7.35;;;1.50;;
59145;SDS011;44928;53.074;6.646;2023-02-24T01:18:48;8.63;;;1.60;;
59145;SDS011;44928;53.074;6.646;2023-02-24T01:21:15;9.15;;;1.80;;
59145;SDS011;44928;53.074;6.646;2023-02-24T01:23:42;8.85;;;1.90;;
59145;SDS011;44928;53.074;6.646;2023-02-24T01:26:11;7.20;;;1.60;;
59145;SDS011;44928;53.074;6.646;2023-02-24T01:28:37;13.57;;;1.52;;
59145;SDS011;44928;53.074;6.646;2023-02-24T01:31:04;9.50;;;1.77;;
59145;SDS011;44928;53.074;6.646;2023-02-24T01:33:33;8.15;;;1.38;;
59145;SDS011;44928;53.074;6.646;2023-02-24T01:36:08;9.27;;;1.70;;
59145;SDS011;44928;53.074;6.646;2023-02-24T01:38:35;8.98;;;2.17;;
59145;SDS011;44928;53.074;6.646;2023-02-24T01:41:02;9.13;;;1.77;;
59145;SDS011;44928;53.074;6.646;2023-02-24T01:43:30;7.25;;;1.30;;
59145;SDS011;44928;53.074;6.646;2023-02-24T01:45:57;9.90;;;1.77;;
59145;SDS011;44928;53.074;6.646;2023-02-24T01:48:23;6.43;;;1.35;;
59145;SDS011;44928;53.074;6.646;2023-02-24T01:50:50;8.57;;;1.40;;
59145;SDS011;44928;53.074;6.646;2023-02-24T01:53:16;8.57;;;1.65;;
59145;SDS011;44928;53.074;6.646;2023-02-24T01:55:44;9.77;;;1.50;;
59145;SDS011;44928;53.074;6.646;2023-02-24T01:58:16;9.95;;;1.73;;
59145;SDS011;44928;53.074;6.646;2023-02-24T02:00:48;8.60;;;1.58;;
59145;SDS011;44928;53.074;6.646;2023-02-24T02:03:19;9.50;;;1.95;;
59145;SDS011;44928;53.074;6.646;2023-02-24T02:05:59;8.20;;;1.63;;
59145;SDS011;44928;53.074;6.646;2023-02-24T02:08:29;8.65;;;1.80;;
59145;SDS011;44928;53.074;6.646;2023-02-24T02:10:57;7.13;;;1.45;;
59145;SDS011;44928;53.074;6.646;2023-02-24T02:13:27;9.02;;;2.00;;
59145;SDS011;44928;53.074;6.646;2023-02-24T02:18:39;9.60;;;1.88;;
59145;SDS011;44928;53.074;6.646;2023-02-24T02:35:11;10.00;;;1.75;;
59145;SDS011;44928;53.074;6.646;2023-02-24T02:40:35;9.45;;;1.48;;
59145;SDS011;44928;53.074;6.646;2023-02-24T02:43:12;10.30;;;2.00;;
59145;SDS011;44928;53.074;6.646;2023-02-24T02:46:11;4.63;;;1.15;;
59145;SDS011;44928;53.074;6.646;2023-02-24T02:48:48;8.70;;;1.45;;
59145;SDS011;44928;53.074;6.646;2023-02-24T02:51:23;7.38;;;1.67;;
59145;SDS011;44928;53.074;6.646;2023-02-24T02:56:44;9.52;;;1.65;;
59145;SDS011;44928;53.074;6.646;2023-02-24T02:59:14;9.18;;;1.75;;
59145;SDS011;44928;53.074;6.646;2023-02-24T03:01:46;9.32;;;1.60;;
59145;SDS011;44928;53.074;6.646;2023-02-24T03:04:16;8.82;;;1.50;;
59145;SDS011;44928;53.074;6.646;2023-02-24T03:06:49;8.38;;;1.48;;
59145;SDS011;44928;53.074;6.646;2023-02-24T03:09:29;9.30;;;1.50;;
59145;SDS011;44928;53.074;6.646;2023-02-24T03:12:04;8.43;;;1.40;;
59145;SDS011;44928;53.074;6.646;2023-02-24T03:14:35;9.95;;;1.45;;
59145;SDS011;44928;53.074;6.646;2023-02-24T03:17:04;8.88;;;1.65;;
59145;SDS011;44928;53.074;6.646;2023-02-24T03:19:45;8.05;;;1.40;;
59145;SDS011;44928;53.074;6.646;2023-02-24T03:22:20;10.13;;;1.45;;
59145;SDS011;44928;53.074;6.646;2023-02-24T03:24:51;8.23;;;1.40;;
59145;SDS011;44928;53.074;6.646;2023-02-24T03:27:27;10.98;;;2.28;;
59145;SDS011;44928;53.074;6.646;2023-02-24T03:30:05;8.75;;;2.45;;
59145;SDS011;44928;53.074;6.646;2023-02-24T03:32:50;8.52;;;1.30;;
59145;SDS011;44928;53.074;6.646;2023-02-24T03:35:26;7.25;;;1.40;;
59145;SDS011;44928;53.074;6.646;2023-02-24T03:37:55;9.07;;;1.35;;
59145;SDS011;44928;53.074;6.646;2023-02-24T03:40:23;10.32;;;1.50;;
59145;SDS011;44928;53.074;6.646;2023-02-24T03:43:09;5.07;;;1.20;;
59145;SDS011;44928;53.074;6.646;2023-02-24T03:45:42;6.75;;;1.10;;
59145;SDS011;44928;53.074;6.646;2023-02-24T03:48:10;7.50;;;1.52;;
59145;SDS011;44928;53.074;6.646;2023-02-24T03:50:37;5.20;;;1.10;;
59145;SDS011;44928;53.074;6.646;2023-02-24T03:53:27;9.27;;;1.38;;
59145;SDS011;44928;53.074;6.646;2023-02-24T03:56:02;8.70;;;1.38;;
59145;SDS011;44928;53.074;6.646;2023-02-24T03:58:48;6.72;;;1.02;;
59145;SDS011;44928;53.074;6.646;2023-02-24T04:01:31;6.93;;;1.40;;
59145;SDS011;44928;53.074;6.646;2023-02-24T04:05:06;6.95;;;1.33;;
59145;SDS011;44928;53.074;6.646;2023-02-24T04:10:06;11.05;;;1.38;;
59145;SDS011;44928;53.074;6.646;2023-02-24T04:18:06;8.25;;;1.52;;
59145;SDS011;44928;53.074;6.646;2023-02-24T04:20:54;7.57;;;1.08;;
59145;SDS011;44928;53.074;6.646;2023-02-24T04:23:30;6.07;;;1.40;;
59145;SDS011;44928;53.074;6.646;2023-02-24T04:26:02;13.38;;;1.90;;
59145;SDS011;44928;53.074;6.646;2023-02-24T04:28:30;9.25;;;1.45;;
59145;SDS011;44928;53.074;6.646;2023-02-24T04:30:59;9.35;;;1.40;;
59145;SDS011;44928;53.074;6.646;2023-02-24T04:33:34;7.47;;;1.10;;
59145;SDS011;44928;53.074;6.646;2023-02-24T04:36:00;8.48;;;1.42;;
59145;SDS011;44928;53.074;6.646;2023-02-24T04:38:27;12.68;;;1.40;;
59145;SDS011;44928;53.074;6.646;2023-02-24T04:40:53;8.13;;;1.52;;
59145;SDS011;44928;53.074;6.646;2023-02-24T04:43:19;7.93;;;1.20;;
59145;SDS011;44928;53.074;6.646;2023-02-24T04:45:45;6.43;;;1.30;;
59145;SDS011;44928;53.074;6.646;2023-02-24T04:48:10;7.20;;;1.08;;
59145;SDS011;44928;53.074;6.646;2023-02-24T04:50:37;8.50;;;1.30;;
59145;SDS011;44928;53.074;6.646;2023-02-24T04:53:06;5.97;;;1.50;;
59145;SDS011;44928;53.074;6.646;2023-02-24T04:55:39;7.60;;;1.48;;
59145;SDS011;44928;53.074;6.646;2023-02-24T04:58:13;5.57;;;1.10;;
59145;SDS011;44928;53.074;6.646;2023-02-24T05:00:48;9.10;;;1.33;;
59145;SDS011;44928;53.074;6.646;2023-02-24T05:03:16;6.32;;;1.38;;
59145;SDS011;44928;53.074;6.646;2023-02-24T05:05:49;7.63;;;1.58;;
59145;SDS011;44928;53.074;6.646;2023-02-24T05:08:20;9.60;;;1.67;;
59145;SDS011;44928;53.074;6.646;2023-02-24T05:10:46;7.15;;;1.10;;
59145;SDS011;44928;53.074;6.646;2023-02-24T05:13:16;7.93;;;1.38;;
59145;SDS011;44928;53.074;6.646;2023-02-24T05:15:51;10.10;;;1.23;;
59145;SDS011;44928;53.074;6.646;2023-02-24T05:18:22;9.65;;;1.40;;
59145;SDS011;44928;53.074;6.646;2023-02-24T05:20:54;8.52;;;1.40;;
59145;SDS011;44928;53.074;6.646;2023-02-24T05:23:40;7.25;;;1.77;;
59145;SDS011;44928;53.074;6.646;2023-02-24T05:26:09;8.07;;;2.13;;
59145;SDS011;44928;53.074;6.646;2023-02-24T05:28:37;8.38;;;1.30;;
59145;SDS011;44928;53.074;6.646;2023-02-24T05:33:39;7.93;;;1.40;;
59145;SDS011;44928;53.074;6.646;2023-02-24T05:36:11;8.43;;;1.30;;
59145;SDS011;44928;53.074;6.646;2023-02-24T05:38:41;6.43;;;1.10;;
59145;SDS011;44928;53.074;6.646;2023-02-24T05:41:14;12.20;;;1.67;;
59145;SDS011;44928;53.074;6.646;2023-02-24T05:43:53;8.85;;;2.63;;
59145;SDS011;44928;53.074;6.646;2023-02-24T05:46:24;8.35;;;1.48;;
59145;SDS011;44928;53.074;6.646;2023-02-24T05:48:54;9.02;;;1.40;;
59145;SDS011;44928;53.074;6.646;2023-02-24T05:51:22;7.88;;;1.30;;
59145;SDS011;44928;53.074;6.646;2023-02-24T05:53:49;9.75;;;1.55;;
59145;SDS011;44928;53.074;6.646;2023-02-24T05:58:48;8.73;;;1.67;;
59145;SDS011;44928;53.074;6.646;2023-02-24T06:01:26;6.97;;;1.38;;
59145;SDS011;44928;53.074;6.646;2023-02-24T06:03:57;8.65;;;1.35;;
59145;SDS011;44928;53.074;6.646;2023-02-24T06:06:33;11.57;;;1.20;;
59145;SDS011;44928;53.074;6.646;2023-02-24T06:09:04;7.10;;;1.45;;
59145;SDS011;44928;53.074;6.646;2023-02-24T06:11:35;7.63;;;1.63;;
59145;SDS011;44928;53.074;6.646;2023-02-24T06:14:02;9.30;;;1.50;;
59145;SDS011;44928;53.074;6.646;2023-02-24T06:16:32;7.13;;;1.35;;
59145;SDS011;44928;53.074;6.646;2023-02-24T06:18:59;8.95;;;1.30;;
59145;SDS011;44928;53.074;6.646;2023-02-24T06:21:25;9.48;;;1.48;;
59145;SDS011;44928;53.074;6.646;2023-02-24T06:23:57;8.23;;;1.52;;
59145;SDS011;44928;53.074;6.646;2023-02-24T06:26:26;8.30;;;1.70;;
59145;SDS011;44928;53.074;6.646;2023-02-24T06:28:57;7.60;;;1.70;;
59145;SDS011;44928;53.074;6.646;2023-02-24T06:31:24;8.40;;;1.88;;
59145;SDS011;44928;53.074;6.646;2023-02-24T06:33:51;8.95;;;1.58;;
59145;SDS011;44928;53.074;6.646;2023-02-24T06:36:18;11.85;;;2.08;;
59145;SDS011;44928;53.074;6.646;2023-02-24T06:38:44;10.98;;;2.10;;
59145;SDS011;44928;53.074;6.646;2023-02-24T06:41:10;5.63;;;1.23;;
59145;SDS011;44928;53.074;6.646;2023-02-24T06:43:40;9.80;;;1.70;;
59145;SDS011;44928;53.074;6.646;2023-02-24T06:46:08;8.43;;;1.52;;
59145;SDS011;44928;53.074;6.646;2023-02-24T06:48:36;11.27;;;1.80;;
59145;SDS011;44928;53.074;6.646;2023-02-24T06:51:09;11.43;;;1.92;;
59145;SDS011;44928;53.074;6.646;2023-02-24T06:53:42;10.50;;;2.03;;
59145;SDS011;44928;53.074;6.646;2023-02-24T06:56:09;10.98;;;2.35;;
59145;SDS011;44928;53.074;6.646;2023-02-24T06:58:49;9.68;;;2.17;;
59145;SDS011;44928;53.074;6.646;2023-02-24T07:01:17;8.57;;;1.95;;
59145;SDS011;44928;53.074;6.646;2023-02-24T07:03:45;12.43;;;3.17;;
59145;SDS011;44928;53.074;6.646;2023-02-24T07:06:27;11.90;;;2.40;;
59145;SDS011;44928;53.074;6.646;2023-02-24T07:08:58;11.95;;;2.15;;
59145;SDS011;44928;53.074;6.646;2023-02-24T07:11:32;9.55;;;1.90;;
59145;SDS011;44928;53.074;6.646;2023-02-24T07:13:58;12.55;;;2.20;;
59145;SDS011;44928;53.074;6.646;2023-02-24T07:16:25;12.73;;;2.60;;
59145;SDS011;44928;53.074;6.646;2023-02-24T07:18:56;11.45;;;2.55;;
59145;SDS011;44928;53.074;6.646;2023-02-24T07:21:24;10.50;;;2.55;;
59145;SDS011;44928;53.074;6.646;2023-02-24T07:23:54;12.63;;;2.55;;
59145;SDS011;44928;53.074;6.646;2023-02-24T07:26:22;15.35;;;3.53;;
59145;SDS011;44928;53.074;6.646;2023-02-24T07:28:49;13.65;;;2.75;;
59145;SDS011;44928;53.074;6.646;2023-02-24T07:31:19;10.23;;;2.58;;
59145;SDS011;44928;53.074;6.646;2023-02-24T07:33:48;13.38;;;2.70;;
59145;SDS011;44928;53.074;6.646;2023-02-24T07:36:17;12.70;;;2.70;;
59145;SDS011;44928;53.074;6.646;2023-02-24T07:38:48;12.15;;;2.85;;
59145;SDS011;44928;53.074;6.646;2023-02-24T07:41:19;11.90;;;2.88;;
59145;SDS011;44928;53.074;6.646;2023-02-24T07:43:47;16.42;;;3.35;;
59145;SDS011;44928;53.074;6.646;2023-02-24T07:46:21;12.93;;;2.80;;
59145;SDS011;44928;53.074;6.646;2023-02-24T07:48:50;16.40;;;3.20;;
59145;SDS011;44928;53.074;6.646;2023-02-24T07:51:17;12.55;;;2.50;;
59145;SDS011;44928;53.074;6.646;2023-02-24T07:53:52;14.65;;;2.67;;
59145;SDS011;44928;53.074;6.646;2023-02-24T07:56:21;9.70;;;2.22;;
59145;SDS011;44928;53.074;6.646;2023-02-24T08:01:24;10.73;;;2.92;;
59145;SDS011;44928;53.074;6.646;2023-02-24T08:03:55;13.83;;;3.20;;
59145;SDS011;44928;53.074;6.646;2023-02-24T08:06:34;10.48;;;2.63;;
59145;SDS011;44928;53.074;6.646;2023-02-24T08:09:12;11.82;;;2.78;;
59145;SDS011;44928;53.074;6.646;2023-02-24T08:11:47;14.32;;;2.80;;
59145;SDS011;44928;53.074;6.646;2023-02-24T08:14:18;10.45;;;2.60;;
59145;SDS011;44928;53.074;6.646;2023-02-24T08:16:52;14.10;;;2.88;;
59145;SDS011;44928;53.074;6.646;2023-02-24T08:19:24;14.18;;;3.15;;
59145;SDS011;44928;53.074;6.646;2023-02-24T08:22:07;10.35;;;2.40;;
59145;SDS011;44928;53.074;6.646;2023-02-24T08:24:52;12.75;;;2.97;;
59145;SDS011;44928;53.074;6.646;2023-02-24T08:27:24;11.35;;;2.35;;
59145;SDS011;44928;53.074;6.646;2023-02-24T08:29:54;12.80;;;2.67;;
59145;SDS011;44928;53.074;6.646;2023-02-24T08:32:28;13.50;;;3.10;;
59145;SDS011;44928;53.074;6.646;2023-02-24T08:35:06;10.50;;;3.00;;
59145;SDS011;44928;53.074;6.646;2023-02-24T08:37:39;13.27;;;2.72;;
59145;SDS011;44928;53.074;6.646;2023-02-24T08:40:13;10.60;;;2.42;;
59145;SDS011;44928;53.074;6.646;2023-02-24T08:42:57;11.80;;;2.63;;
59145;SDS011;44928;53.074;6.646;2023-02-24T08:45:26;12.02;;;3.53;;
59145;SDS011;44928;53.074;6.646;2023-02-24T08:48:00;9.82;;;2.17;;
59145;SDS011;44928;53.074;6.646;2023-02-24T08:50:42;11.73;;;3.05;;
59145;SDS011;44928;53.074;6.646;2023-02-24T08:53:10;10.23;;;2.20;;
59145;SDS011;44928;53.074;6.646;2023-02-24T08:55:46;13.93;;;2.70;;
59145;SDS011;44928;53.074;6.646;2023-02-24T08:58:19;11.55;;;3.17;;
59145;SDS011;44928;53.074;6.646;2023-02-24T09:00:54;11.82;;;2.83;;
59145;SDS011;44928;53.074;6.646;2023-02-24T09:03:23;15.05;;;2.85;;
59145;SDS011;44928;53.074;6.646;2023-02-24T09:08:36;11.55;;;2.50;;
59145;SDS011;44928;53.074;6.646;2023-02-24T09:11:05;10.50;;;2.45;;
59145;SDS011;44928;53.074;6.646;2023-02-24T09:13:38;10.23;;;3.08;;
59145;SDS011;44928;53.074;6.646;2023-02-24T09:16:22;12.05;;;2.55;;
59145;SDS011;44928;53.074;6.646;2023-02-24T09:18:49;9.63;;;2.47;;
59145;SDS011;44928;53.074;6.646;2023-02-24T09:21:34;8.40;;;2.10;;
59145;SDS011;44928;53.074;6.646;2023-02-24T09:24:12;9.50;;;2.70;;
59145;SDS011;44928;53.074;6.646;2023-02-24T09:26:38;8.35;;;2.47;;
59145;SDS011;44928;53.074;6.646;2023-02-24T09:29:10;12.02;;;2.50;;
59145;SDS011;44928;53.074;6.646;2023-02-24T09:31:57;10.25;;;3.08;;
59145;SDS011;44928;53.074;6.646;2023-02-24T09:34:37;6.43;;;2.10;;
59145;SDS011;44928;53.074;6.646;2023-02-24T09:37:11;10.32;;;2.83;;
59145;SDS011;44928;53.074;6.646;2023-02-24T09:39:50;8.52;;;2.42;;
59145;SDS011;44928;53.074;6.646;2023-02-24T09:42:42;9.75;;;2.58;;
59145;SDS011;44928;53.074;6.646;2023-02-24T09:45:20;7.30;;;2.22;;
59145;SDS011;44928;53.074;6.646;2023-02-24T09:48:13;8.40;;;2.70;;
59145;SDS011;44928;53.074;6.646;2023-02-24T09:50:47;10.43;;;2.97;;
59145;SDS011;44928;53.074;6.646;2023-02-24T09:53:30;8.63;;;2.90;;
59145;SDS011;44928;53.074;6.646;2023-02-24T09:56:04;9.35;;;2.45;;
59145;SDS011;44928;53.074;6.646;2023-02-24T09:58:42;12.18;;;2.53;;
59145;SDS011;44928;53.074;6.646;2023-02-24T10:06:57;12.20;;;2.47;;
59145;SDS011;44928;53.074;6.646;2023-02-24T10:13:06;10.82;;;3.53;;
59145;SDS011;44928;53.074;6.646;2023-02-24T10:15:38;9.82;;;3.60;;
59145;SDS011;44928;53.074;6.646;2023-02-24T10:18:27;15.65;;;4.07;;
59145;SDS011;44928;53.074;6.646;2023-02-24T10:21:05;15.93;;;3.58;;
59145;SDS011;44928;53.074;6.646;2023-02-24T10:26:29;17.20;;;4.22;;
59145;SDS011;44928;53.074;6.646;2023-02-24T10:30:01;14.10;;;3.13;;
59145;SDS011;44928;53.074;6.646;2023-02-24T10:34:58;19.80;;;3.55;;
59145;SDS011;44928;53.074;6.646;2023-02-24T10:37:25;15.63;;;3.28;;
59145;SDS011;44928;53.074;6.646;2023-02-24T10:39:56;15.05;;;3.20;;
59145;SDS011;44928;53.074;6.646;2023-02-24T10:42:25;16.83;;;3.33;;
59145;SDS011;44928;53.074;6.646;2023-02-24T10:47:55;17.13;;;3.50;;
59145;SDS011;44928;53.074;6.646;2023-02-24T10:53:01;24.65;;;4.10;;
59145;SDS011;44928;53.074;6.646;2023-02-24T10:55:31;20.75;;;3.22;;
59145;SDS011;44928;53.074;6.646;2023-02-24T11:01:24;27.33;;;6.57;;
59145;SDS011;44928;53.074;6.646;2023-02-24T11:04:11;19.67;;;3.38;;
59145;SDS011;44928;53.074;6.646;2023-02-24T11:07:11;21.97;;;4.63;;
59145;SDS011;44928;53.074;6.646;2023-02-24T11:09:48;29.45;;;6.93;;
59145;SDS011;44928;53.074;6.646;2023-02-24T11:12:35;29.90;;;4.97;;
59145;SDS011;44928;53.074;6.646;2023-02-24T11:15:33;22.25;;;4.75;;
59145;SDS011;44928;53.074;6.646;2023-02-24T11:18:23;14.25;;;3.50;;
59145;SDS011;44928;53.074;6.646;2023-02-24T11:20:57;21.00;;;3.80;;
59145;SDS011;44928;53.074;6.646;2023-02-24T11:23:32;19.33;;;3.35;;
59145;SDS011;44928;53.074;6.646;2023-02-24T11:26:21;16.30;;;3.10;;
59145;SDS011;44928;53.074;6.646;2023-02-24T11:34:38;36.15;;;8.23;;
59145;SDS011;44928;53.074;6.646;2023-02-24T11:37:20;23.02;;;4.35;;
59145;SDS011;44928;53.074;6.646;2023-02-24T11:48:11;19.17;;;3.72;;
59145;SDS011;44928;53.074;6.646;2023-02-24T11:51:00;22.85;;;3.80;;
59145;SDS011;44928;53.074;6.646;2023-02-24T11:56:22;21.17;;;4.90;;
59145;SDS011;44928;53.074;6.646;2023-02-24T12:04:19;25.08;;;3.90;;
59145;SDS011;44928;53.074;6.646;2023-02-24T12:07:18;18.70;;;3.28;;
59145;SDS011;44928;53.074;6.646;2023-02-24T12:09:53;22.50;;;3.75;;
59145;SDS011;44928;53.074;6.646;2023-02-24T12:15:28;10.13;;;1.52;;
59145;SDS011;44928;53.074;6.646;2023-02-24T12:20:47;10.02;;;1.52;;
59145;SDS011;44928;53.074;6.646;2023-02-24T12:23:35;15.90;;;2.60;;
59145;SDS011;44928;53.074;6.646;2023-02-24T12:34:39;9.18;;;1.67;;
59145;SDS011;44928;53.074;6.646;2023-02-24T12:40:24;13.63;;;2.15;;
59145;SDS011;44928;53.074;6.646;2023-02-24T12:54:28;12.10;;;2.33;;
59145;SDS011;44928;53.074;6.646;2023-02-24T12:59:48;10.38;;;1.60;;
59145;SDS011;44928;53.074;6.646;2023-02-24T13:11:51;18.77;;;4.85;;
59145;SDS011;44928;53.074;6.646;2023-02-24T13:14:04;14.02;;;2.33;;
59145;SDS011;44928;53.074;6.646;2023-02-24T13:16:49;21.40;;;7.10;;
59145;SDS011;44928;53.074;6.646;2023-02-24T13:22:29;23.02;;;9.60;;
59145;SDS011;44928;53.074;6.646;2023-02-24T13:24:40;10.05;;;2.30;;
59145;SDS011;44928;53.074;6.646;2023-02-24T13:27:24;5.00;;;1.00;;
59145;SDS011;44928;53.074;6.646;2023-02-24T13:29:59;7.13;;;1.67;;
59145;SDS011;44928;53.074;6.646;2023-02-24T13:32:56;9.80;;;3.95;;
59145;SDS011;44928;53.074;6.646;2023-02-24T13:37:50;9.75;;;1.58;;
59145;SDS011;44928;53.074;6.646;2023-02-24T13:42:43;4.55;;;0.77;;
59145;SDS011;44928;53.074;6.646;2023-02-24T13:45:20;5.80;;;1.00;;
59145;SDS011;44928;53.074;6.646;2023-02-24T13:50:34;6.50;;;1.20;;
59145;SDS011;44928;53.074;6.646;2023-02-24T14:04:29;9.73;;;1.60;;
59145;SDS011;44928;53.074;6.646;2023-02-24T14:09:27;7.90;;;1.10;;
59145;SDS011;44928;53.074;6.646;2023-02-24T14:11:58;13.18;;;1.95;;
59145;SDS011;44928;53.074;6.646;2023-02-24T14:14:27;10.85;;;1.77;;
59145;SDS011;44928;53.074;6.646;2023-02-24T14:16:54;7.38;;;1.02;;
59145;SDS011;44928;53.074;6.646;2023-02-24T14:19:20;6.40;;;1.08;;
59145;SDS011;44928;53.074;6.646;2023-02-24T14:21:51;5.70;;;0.93;;
59145;SDS011;44928;53.074;6.646;2023-02-24T14:24:21;6.95;;;0.95;;
59145;SDS011;44928;53.074;6.646;2023-02-24T14:27:05;12.35;;;2.42;;
59145;SDS011;44928;53.074;6.646;2023-02-24T14:29:33;10.23;;;1.17;;
59145;SDS011;44928;53.074;6.646;2023-02-24T14:32:01;12.23;;;1.77;;
59145;SDS011;44928;53.074;6.646;2023-02-24T14:34:29;11.57;;;1.80;;
59145;SDS011;44928;53.074;6.646;2023-02-24T14:36:58;10.88;;;1.77;;
59145;SDS011;44928;53.074;6.646;2023-02-24T14:39:28;9.00;;;2.13;;
59145;SDS011;44928;53.074;6.646;2023-02-24T14:44:33;12.68;;;1.55;;
59145;SDS011;44928;53.074;6.646;2023-02-24T14:47:09;9.93;;;2.28;;
59145;SDS011;44928;53.074;6.646;2023-02-24T14:49:38;10.32;;;1.80;;
59145;SDS011;44928;53.074;6.646;2023-02-24T14:52:07;10.35;;;2.13;;
59145;SDS011;44928;53.074;6.646;2023-02-24T14:55:09;8.68;;;1.38;;
59145;SDS011;44928;53.074;6.646;2023-02-24T14:57:54;13.05;;;1.70;;
59145;SDS011;44928;53.074;6.646;2023-02-24T15:00:34;10.45;;;2.10;;
59145;SDS011;44928;53.074;6.646;2023-02-24T15:03:04;12.82;;;1.60;;
59145;SDS011;44928;53.074;6.646;2023-02-24T15:05:43;13.27;;;2.42;;
59145;SDS011;44928;53.074;6.646;2023-02-24T15:08:25;13.25;;;2.15;;
59145;SDS011;44928;53.074;6.646;2023-02-24T15:11:06;15.60;;;2.08;;
59145;SDS011;44928;53.074;6.646;2023-02-24T15:13:45;13.07;;;2.45;;
59145;SDS011;44928;53.074;6.646;2023-02-24T15:18:43;13.45;;;2.22;;
59145;SDS011;44928;53.074;6.646;2023-02-24T15:21:22;21.23;;;2.85;;
59145;SDS011;44928;53.074;6.646;2023-02-24T15:24:03;18.90;;;2.90;;
59145;SDS011;44928;53.074;6.646;2023-02-24T15:26:40;14.05;;;2.20;;
59145;SDS011;44928;53.074;6.646;2023-02-24T15:29:12;17.65;;;3.03;;
59145;SDS011;44928;53.074;6.646;2023-02-24T15:31:47;13.30;;;2.58;;
59145;SDS011;44928;53.074;6.646;2023-02-24T15:34:24;16.58;;;1.98;;
59145;SDS011;44928;53.074;6.646;2023-02-24T15:36:55;12.70;;;1.90;;
59145;SDS011;44928;53.074;6.646;2023-02-24T15:39:29;12.50;;;2.00;;
59145;SDS011;44928;53.074;6.646;2023-02-24T15:44:58;13.18;;;2.30;;
59145;SDS011;44928;53.074;6.646;2023-02-24T15:47:25;13.65;;;2.05;;
59145;SDS011;44928;53.074;6.646;2023-02-24T15:49:53;16.42;;;2.70;;
59145;SDS011;44928;53.074;6.646;2023-02-24T15:52:22;14.73;;;1.98;;
59145;SDS011;44928;53.074;6.646;2023-02-24T15:57:16;13.90;;;2.35;;
59145;SDS011;44928;53.074;6.646;2023-02-24T15:59:43;16.00;;;2.22;;
59145;SDS011;44928;53.074;6.646;2023-02-24T16:02:17;14.50;;;2.83;;
59145;SDS011;44928;53.074;6.646;2023-02-24T16:04:45;15.68;;;3.67;;
59145;SDS011;44928;53.074;6.646;2023-02-24T16:07:16;15.23;;;2.50;;
59145;SDS011;44928;53.074;6.646;2023-02-24T16:09:48;12.40;;;2.60;;
59145;SDS011;44928;53.074;6.646;2023-02-24T16:12:18;13.98;;;2.70;;
59145;SDS011;44928;53.074;6.646;2023-02-24T16:14:53;14.90;;;2.00;;
59145;SDS011;44928;53.074;6.646;2023-02-24T16:17:33;11.43;;;2.10;;
59145;SDS011;44928;53.074;6.646;2023-02-24T16:20:05;10.73;;;1.65;;
59145;SDS011;44928;53.074;6.646;2023-02-24T16:22:35;10.65;;;1.80;;
59145;SDS011;44928;53.074;6.646;2023-02-24T16:25:01;14.88;;;2.22;;
59145;SDS011;44928;53.074;6.646;2023-02-24T16:27:27;14.35;;;2.10;;
59145;SDS011;44928;53.074;6.646;2023-02-24T16:29:54;15.65;;;2.40;;
59145;SDS011;44928;53.074;6.646;2023-02-24T16:32:20;10.77;;;2.35;;
59145;SDS011;44928;53.074;6.646;2023-02-24T16:34:50;13.30;;;2.55;;
59145;SDS011;44928;53.074;6.646;2023-02-24T16:39:47;11.77;;;2.17;;
59145;SDS011;44928;53.074;6.646;2023-02-24T16:42:14;13.73;;;2.25;;
59145;SDS011;44928;53.074;6.646;2023-02-24T16:44:40;13.55;;;2.13;;
59145;SDS011;44928;53.074;6.646;2023-02-24T16:47:06;14.23;;;2.42;;
59145;SDS011;44928;53.074;6.646;2023-02-24T16:52:03;11.18;;;2.00;;
59145;SDS011;44928;53.074;6.646;2023-02-24T16:54:29;10.52;;;2.50;;
59145;SDS011;44928;53.074;6.646;2023-02-24T16:56:55;15.90;;;2.30;;
59145;SDS011;44928;53.074;6.646;2023-02-24T16:59:21;14.38;;;2.38;;
59145;SDS011;44928;53.074;6.646;2023-02-24T17:01:47;13.63;;;3.03;;
59145;SDS011;44928;53.074;6.646;2023-02-24T17:04:13;12.65;;;2.50;;
59145;SDS011;44928;53.074;6.646;2023-02-24T17:06:39;14.82;;;3.58;;
59145;SDS011;44928;53.074;6.646;2023-02-24T17:09:05;15.20;;;2.63;;
59145;SDS011;44928;53.074;6.646;2023-02-24T17:11:31;15.25;;;3.30;;
59145;SDS011;44928;53.074;6.646;2023-02-24T17:13:57;16.63;;;4.03;;
59145;SDS011;44928;53.074;6.646;2023-02-24T17:16:23;14.85;;;2.58;;
59145;SDS011;44928;53.074;6.646;2023-02-24T17:18:49;16.88;;;3.42;;
59145;SDS011;44928;53.074;6.646;2023-02-24T17:21:15;15.25;;;2.75;;
59145;SDS011;44928;53.074;6.646;2023-02-24T17:23:42;19.67;;;3.40;;
59145;SDS011;44928;53.074;6.646;2023-02-24T17:26:09;22.73;;;3.95;;
59145;SDS011;44928;53.074;6.646;2023-02-24T17:28:38;18.42;;;4.55;;
59145;SDS011;44928;53.074;6.646;2023-02-24T17:31:04;18.23;;;3.25;;
59145;SDS011;44928;53.074;6.646;2023-02-24T17:33:31;24.10;;;3.88;;
59145;SDS011;44928;53.074;6.646;2023-02-24T17:35:58;18.63;;;3.53;;
59145;SDS011;44928;53.074;6.646;2023-02-24T17:38:24;16.38;;;3.25;;
59145;SDS011;44928;53.074;6.646;2023-02-24T17:40:50;14.95;;;2.90;;
59145;SDS011;44928;53.074;6.646;2023-02-24T17:43:17;11.73;;;2.10;;
59145;SDS011;44928;53.074;6.646;2023-02-24T17:45:44;12.32;;;2.55;;
59145;SDS011;44928;53.074;6.646;2023-02-24T17:48:11;16.50;;;2.42;;
59145;SDS011;44928;53.074;6.646;2023-02-24T17:50:41;20.88;;;3.42;;
59145;SDS011;44928;53.074;6.646;2023-02-24T17:53:07;14.67;;;2.73;;
59145;SDS011;44928;53.074;6.646;2023-02-24T17:55:33;15.27;;;3.10;;
59145;SDS011;44928;53.074;6.646;2023-02-24T17:57:59;16.08;;;2.63;;
59145;SDS011;44928;53.074;6.646;2023-02-24T18:00:25;9.77;;;1.88;;
59145;SDS011;44928;53.074;6.646;2023-02-24T18:02:51;13.15;;;2.53;;